Time;durP1;ratioP1;P1;durP2;ratioP2;P2;SDS_P1;SDS_P2;PMS_P1;PMS_P2;Temp;Humidity;BMP_temperature;BMP_pressure;BME280_temperature;BME280_humidity;BME280_pressure;Samples;Min_cycle;Max_cycle;Signal;HPM_P1;HPM_P2
2023/10/30 00:01:34;;;;;;;2.60;2.37;;;;;;;16.57;66.20;96447.97;5022947;28;20200;-71
2023/10/30 00:04:00;;;;;;;5.27;2.80;;;;;;;16.56;66.42;96441.03;5024061;28;21090;-70
2023/10/30 00:06:25;;;;;;;3.30;2.50;;;;;;;16.58;66.23;96446.94;5027319;28;20222;-70
2023/10/30 00:08:51;;;;;;;3.27;2.83;;;;;;;16.56;66.18;96441.03;5028256;28;20215;-70
2023/10/30 00:11:16;;;;;;;2.93;2.50;;;;;;;16.54;66.21;96446.53;5028357;28;20242;-70
2023/10/30 00:13:42;;;;;;;3.50;2.40;;;;;;;16.53;66.38;96462.59;5029214;28;20271;-69
2023/10/30 00:16:11;;;;;;;7.60;2.37;;;;;;;16.51;66.47;96441.66;5028132;28;20223;-70
2023/10/30 00:18:38;;;;;;;4.00;2.70;;;;;;;16.51;66.55;96423.16;5022880;28;21104;-70
2023/10/30 00:21:05;;;;;;;5.43;2.60;;;;;;;16.48;66.69;96441.28;5026778;28;20517;-70
2023/10/30 00:23:31;;;;;;;3.17;2.50;;;;;;;16.45;66.58;96428.47;5028470;28;20423;-70
2023/10/30 00:25:56;;;;;;;3.50;3.07;;;;;;;16.45;66.76;96439.84;5030968;28;20828;-70
2023/10/30 00:28:22;;;;;;;3.57;2.97;;;;;;;16.49;66.71;96440.25;5028038;28;20200;-70
2023/10/30 00:30:47;;;;;;;3.13;2.80;;;;;;;16.48;66.65;96452.66;5028232;28;20187;-69
2023/10/30 00:33:13;;;;;;;2.67;2.47;;;;;;;16.51;66.68;96440.84;5027796;28;20619;-71
2023/10/30 00:35:38;;;;;;;4.10;2.73;;;;;;;16.48;67.00;96460.59;5025873;28;20191;-71
2023/10/30 00:38:04;;;;;;;3.63;2.60;;;;;;;16.48;66.92;96460.59;5032597;28;20290;-71
2023/10/30 00:40:29;;;;;;;4.13;3.00;;;;;;;16.50;66.93;96463.84;5028190;28;20595;-70
2023/10/30 00:42:55;;;;;;;4.10;2.93;;;;;;;16.52;66.87;96453.03;5029226;28;20184;-70
2023/10/30 00:45:20;;;;;;;3.30;2.47;;;;;;;16.50;66.78;96473.63;5026603;28;20236;-72
2023/10/30 00:47:46;;;;;;;3.63;2.80;;;;;;;16.48;67.13;96487.03;5028390;28;20194;-70
2023/10/30 00:50:11;;;;;;;3.10;2.47;;;;;;;16.48;67.03;96476.47;5027424;28;20192;-70
2023/10/30 00:52:36;;;;;;;5.60;2.87;;;;;;;16.52;67.13;96492.72;5028410;28;20772;-70
2023/10/30 00:55:02;;;;;;;3.57;2.40;;;;;;;16.53;66.97;96495.16;5039251;28;20248;-70
2023/10/30 00:57:28;;;;;;;2.77;2.57;;;;;;;16.52;67.14;96487.44;5029420;28;20269;-69
2023/10/30 00:59:54;;;;;;;3.13;2.53;;;;;;;16.52;67.02;96509.41;5027132;28;20208;-70
2023/10/30 01:02:19;;;;;;;7.53;2.50;;;;;;;16.49;67.18;96509.03;5027845;28;20176;-70
2023/10/30 01:04:45;;;;;;;3.33;2.33;;;;;;;16.48;67.22;96504.75;5030230;28;20195;-70
2023/10/30 01:07:10;;;;;;;2.80;2.37;;;;;;;16.51;67.30;96504.31;5024585;28;20195;-70
2023/10/30 01:09:35;;;;;;;2.97;2.77;;;;;;;16.50;67.44;96502.72;5027639;28;20725;-69
2023/10/30 01:12:01;;;;;;;2.70;2.50;;;;;;;16.51;67.26;96499.84;5025141;28;20581;-70
2023/10/30 01:14:26;;;;;;;5.00;2.60;;;;;;;16.49;67.46;96488.66;5027305;28;20226;-70
2023/10/30 01:16:52;;;;;;;3.00;2.60;;;;;;;16.54;67.38;96490.69;5029913;28;20188;-71
2023/10/30 01:19:17;;;;;;;3.57;2.53;;;;;;;16.55;67.10;96485.19;5026630;28;20207;-70
2023/10/30 01:21:43;;;;;;;3.07;2.73;;;;;;;16.51;67.24;96489.28;5026671;28;20179;-68
2023/10/30 01:24:09;;;;;;;3.57;2.70;;;;;;;16.43;67.42;96490.31;5026935;28;20286;-70
2023/10/30 01:26:35;;;;;;;3.40;2.73;;;;;;;16.42;67.73;96493.97;5031682;28;20521;-70
2023/10/30 01:29:00;;;;;;;4.03;3.13;;;;;;;16.47;67.68;96500.47;5028420;28;20239;-70
2023/10/30 01:31:27;;;;;;;3.77;3.30;;;;;;;16.48;67.48;96496.81;5031350;28;20242;-70
2023/10/30 01:33:54;;;;;;;2.87;2.60;;;;;;;16.50;67.66;96494.78;5029818;28;20866;-71
2023/10/30 01:36:19;;;;;;;3.20;2.80;;;;;;;16.52;67.60;96498.00;5026977;28;20831;-70
2023/10/30 01:38:45;;;;;;;3.20;2.53;;;;;;;16.54;67.68;96502.09;5027516;28;20452;-71
2023/10/30 01:41:10;;;;;;;4.40;2.20;;;;;;;16.56;67.50;96507.16;5018369;28;20238;-70
2023/10/30 01:43:36;;;;;;;5.87;2.30;;;;;;;16.56;67.30;96496.59;5012037;28;20192;-70
2023/10/30 01:46:01;;;;;;;6.13;2.23;;;;;;;16.56;67.38;96488.66;4992809;28;20781;-70
2023/10/30 01:48:29;;;;;;;2.73;2.40;;;;;;;16.58;67.28;96502.47;4977248;28;20249;-70
2023/10/30 01:50:55;;;;;;;3.33;2.23;;;;;;;16.59;67.21;96498.81;5019896;28;20237;-70
2023/10/30 01:53:20;;;;;;;3.40;2.30;;;;;;;16.55;67.41;96503.72;5028269;28;20462;-70
2023/10/30 01:55:47;;;;;;;9.33;2.60;;;;;;;16.59;67.32;96509.41;5031486;28;20423;-71
2023/10/30 01:58:12;;;;;;;3.43;2.23;;;;;;;16.55;67.46;96497.59;5022137;28;20212;-70
2023/10/30 02:00:38;;;;;;;6.10;2.57;;;;;;;16.55;67.53;96494.94;5028394;28;20926;-69
2023/10/30 02:03:04;;;;;;;2.30;2.20;;;;;;;16.56;67.51;96499.22;5023907;28;20708;-69
2023/10/30 02:05:29;;;;;;;2.83;2.50;;;;;;;16.58;67.44;96491.91;5029407;28;20422;-69
2023/10/30 02:07:55;;;;;;;4.90;2.20;;;;;;;16.54;67.49;96488.03;5027002;28;20190;-69
2023/10/30 02:10:21;;;;;;;4.40;2.10;;;;;;;16.55;67.60;96487.03;5029270;28;20274;-69
2023/10/30 02:12:50;;;;;;;2.40;2.03;;;;;;;16.49;67.43;96482.56;5025024;28;20215;-69
2023/10/30 02:15:16;;;;;;;2.50;2.30;;;;;;;16.50;67.61;96473.63;5029545;28;20613;-70
2023/10/30 02:17:42;;;;;;;3.63;2.40;;;;;;;16.49;67.68;96477.28;5032389;28;20451;-70
2023/10/30 02:20:08;;;;;;;2.50;2.30;;;;;;;16.50;67.76;96473.63;5029425;28;20447;-69
2023/10/30 02:22:33;;;;;;;4.20;2.50;;;;;;;16.53;67.78;96481.13;5027471;28;20703;-70
2023/10/30 02:24:59;;;;;;;3.33;2.53;;;;;;;16.51;67.66;96475.22;5040798;28;20191;-70
2023/10/30 02:27:24;;;;;;;2.60;2.03;;;;;;;16.51;67.42;96467.28;5028573;28;20187;-69
2023/10/30 02:29:50;;;;;;;6.93;2.00;;;;;;;16.52;67.68;96484.78;5025415;28;20211;-70
2023/10/30 02:32:16;;;;;;;4.70;2.00;;;;;;;16.53;67.50;96478.47;5031773;28;20211;-70
2023/10/30 02:34:41;;;;;;;2.30;2.10;;;;;;;16.50;67.53;96478.91;5035630;28;20993;-69
2023/10/30 02:37:06;;;;;;;2.03;1.93;;;;;;;16.45;67.55;96470.78;5035197;28;20229;-70
2023/10/30 02:39:33;;;;;;;2.23;2.00;;;;;;;16.40;67.65;96477.50;5028762;28;20207;-70
2023/10/30 02:41:59;;;;;;;5.20;1.90;;;;;;;16.46;67.74;96475.03;5045532;28;20271;-69
2023/10/30 02:44:25;;;;;;;3.10;2.30;;;;;;;16.38;67.40;96468.16;5028208;28;20521;-70
2023/10/30 02:46:50;;;;;;;2.07;1.70;;;;;;;16.33;67.60;96462.66;5045139;28;20992;-70
2023/10/30 02:49:16;;;;;;;3.97;2.17;;;;;;;16.34;67.58;96453.72;5038889;28;20219;-72
2023/10/30 02:51:42;;;;;;;5.27;2.50;;;;;;;16.35;67.58;96456.16;5031822;28;20207;-71
2023/10/30 02:54:07;;;;;;;2.87;2.00;;;;;;;16.32;67.54;96463.69;5039779;28;20206;-71
2023/10/30 02:56:33;;;;;;;8.20;2.30;;;;;;;16.26;67.65;96465.31;5043108;28;20655;-70
2023/10/30 02:58:59;;;;;;;3.17;1.97;;;;;;;16.21;67.65;96465.13;5038272;28;20282;-70
2023/10/30 03:01:26;;;;;;;3.17;1.87;;;;;;;16.24;67.68;96454.16;5036572;28;20238;-70
2023/10/30 03:03:51;;;;;;;3.00;2.00;;;;;;;16.25;67.65;96461.06;5025794;28;20457;-70
2023/10/30 03:06:17;;;;;;;2.17;1.70;;;;;;;16.28;67.57;96458.00;5031923;28;20437;-70
2023/10/30 03:08:43;;;;;;;2.07;1.97;;;;;;;16.27;67.73;96464.28;5032498;28;20223;-70
2023/10/30 03:11:08;;;;;;;7.40;1.87;;;;;;;16.26;67.56;96457.38;5000206;28;20280;-70
2023/10/30 03:13:34;;;;;;;7.67;2.13;;;;;;;16.28;67.37;96460.63;5029557;28;20295;-70
2023/10/30 03:15:59;;;;;;;4.80;2.33;;;;;;;16.19;67.79;96469.81;5021018;28;20192;-70
2023/10/30 03:18:25;;;;;;;4.87;2.50;;;;;;;16.17;67.78;96469.19;4996208;28;20600;-70
2023/10/30 03:20:50;;;;;;;6.13;1.80;;;;;;;16.16;67.74;96470.22;5024496;28;20196;-69
2023/10/30 03:23:15;;;;;;;3.23;2.97;;;;;;;16.17;67.64;96471.84;5030241;28;20195;-71
2023/10/30 03:25:42;;;;;;;2.47;2.27;;;;;;;16.18;67.66;96449.69;5031266;28;20669;-70
2023/10/30 03:28:07;;;;;;;2.93;1.83;;;;;;;16.16;67.76;96451.72;5034124;28;20748;-70
2023/10/30 03:30:35;;;;;;;3.43;1.97;;;;;;;16.13;67.26;96456.38;5036296;28;20576;-70
2023/10/30 03:33:03;;;;;;;3.87;2.27;;;;;;;16.16;67.51;96439.31;5030459;28;20250;-70
2023/10/30 03:35:28;;;;;;;2.83;2.20;;;;;;;16.18;67.54;96460.25;5029298;28;20812;-70
2023/10/30 03:37:53;;;;;;;3.47;1.87;;;;;;;16.16;67.54;96449.06;5030647;28;20438;-69
2023/10/30 03:40:19;;;;;;;2.43;1.97;;;;;;;16.13;67.73;96448.47;5035353;28;20282;-69
2023/10/30 03:42:44;;;;;;;1.80;1.70;;;;;;;16.17;67.63;96450.69;5034324;28;20180;-71
2023/10/30 03:45:10;;;;;;;3.70;2.20;;;;;;;16.17;67.52;96455.97;5029966;28;20187;-69
2023/10/30 03:47:35;;;;;;;3.13;2.03;;;;;;;16.11;67.44;96445.22;5038259;28;20716;-70
2023/10/30 03:50:01;;;;;;;2.50;2.00;;;;;;;16.06;67.61;96442.38;5030339;28;20212;-70
2023/10/30 03:52:26;;;;;;;3.27;1.67;;;;;;;16.03;67.64;96440.16;5028367;28;20207;-70
2023/10/30 03:54:52;;;;;;;2.03;1.83;;;;;;;16.06;67.69;96433.66;5035829;28;20223;-69
2023/10/30 03:57:17;;;;;;;3.20;1.80;;;;;;;16.00;67.72;96421.25;5029861;28;20619;-69
2023/10/30 03:59:43;;;;;;;2.20;2.03;;;;;;;15.99;67.41;96416.97;5034729;28;20222;-70
2023/10/30 04:02:09;;;;;;;3.80;1.80;;;;;;;16.01;67.46;96428.97;5029431;28;20653;-70
2023/10/30 04:04:35;;;;;;;2.80;2.40;;;;;;;15.95;67.53;96414.75;5032545;28;20226;-70
2023/10/30 04:07:02;;;;;;;4.90;2.23;;;;;;;15.92;67.46;96420.47;5029919;28;20222;-71
2023/10/30 04:09:28;;;;;;;2.50;1.60;;;;;;;15.96;67.39;96405.00;5029221;28;20447;-71
2023/10/30 04:11:53;;;;;;;1.97;1.70;;;;;;;15.94;67.10;96402.53;5028962;28;20459;-71
2023/10/30 04:14:19;;;;;;;2.27;1.70;;;;;;;15.92;66.85;96401.13;5037445;28;20282;-70
2023/10/30 04:16:44;;;;;;;2.73;1.97;;;;;;;15.87;66.75;96403.59;5029843;28;20234;-70
2023/10/30 04:19:10;;;;;;;2.50;2.10;;;;;;;15.88;66.74;96402.59;5017214;28;20203;-70
2023/10/30 04:21:35;;;;;;;2.20;2.00;;;;;;;15.87;66.61;96403.59;5027653;28;20194;-70
2023/10/30 04:24:01;;;;;;;5.97;1.80;;;;;;;15.84;66.66;96409.25;5025661;28;20654;-69
2023/10/30 04:26:26;;;;;;;2.47;1.60;;;;;;;15.79;66.62;96408.03;5028355;28;20190;-70
2023/10/30 04:28:52;;;;;;;3.70;2.07;;;;;;;15.82;66.51;96402.34;5024156;28;20218;-69
2023/10/30 04:31:17;;;;;;;8.00;1.83;;;;;;;15.79;66.38;96413.31;5034990;28;20206;-71
2023/10/30 04:33:42;;;;;;;8.97;1.70;;;;;;;15.77;66.42;96415.34;5027066;28;20176;-70
2023/10/30 04:36:08;;;;;;;2.00;1.70;;;;;;;15.77;66.33;96407.41;5029933;28;20188;-71
2023/10/30 04:38:36;;;;;;;2.30;2.10;;;;;;;15.74;66.27;96402.56;5034192;28;20227;-70
2023/10/30 04:41:03;;;;;;;2.60;2.10;;;;;;;15.71;66.34;96387.13;5035467;28;20714;-71
2023/10/30 04:43:30;;;;;;;1.97;1.77;;;;;;;15.72;66.21;96393.22;5038438;28;20426;-69
2023/10/30 04:45:56;;;;;;;4.17;2.20;;;;;;;15.70;66.23;96392.59;5039423;28;20430;-70
2023/10/30 04:48:21;;;;;;;6.43;2.00;;;;;;;15.65;66.17;96401.97;5029912;28;20460;-69
2023/10/30 04:50:46;;;;;;;3.17;2.27;;;;;;;15.61;66.41;96408.66;5035155;28;20274;-70
2023/10/30 04:53:12;;;;;;;3.07;1.90;;;;;;;15.61;66.40;96408.66;5026818;28;20211;-71
2023/10/30 04:55:37;;;;;;;3.00;1.43;;;;;;;15.59;66.30;96407.25;5028745;28;20563;-70
2023/10/30 04:58:03;;;;;;;4.23;1.90;;;;;;;15.55;66.29;96404.22;5026908;28;20219;-70
2023/10/30 05:00:28;;;;;;;4.47;1.67;;;;;;;15.54;66.25;96397.31;5025569;28;20192;-71
2023/10/30 05:02:54;;;;;;;2.57;1.90;;;;;;;15.56;66.39;96400.56;5028884;28;20234;-70
2023/10/30 05:05:19;;;;;;;1.53;1.43;;;;;;;15.56;66.45;96412.94;5038447;28;20187;-71
2023/10/30 05:07:45;;;;;;;2.30;1.83;;;;;;;15.58;66.46;96413.53;5032814;28;20187;-71
2023/10/30 05:10:11;;;;;;;2.33;2.13;;;;;;;15.60;66.39;96416.78;5038991;28;20250;-69
2023/10/30 05:12:37;;;;;;;10.57;2.00;;;;;;;15.61;66.30;96413.94;5027529;28;20297;-70
2023/10/30 05:15:03;;;;;;;2.33;2.13;;;;;;;15.58;66.46;96414.34;5027249;28;20438;-70
2023/10/30 05:17:28;;;;;;;3.13;1.83;;;;;;;15.60;66.38;96408.88;5028596;28;20480;-71
2023/10/30 05:19:54;;;;;;;9.07;2.20;;;;;;;15.54;66.06;96405.22;5030844;28;20579;-70
2023/10/30 05:22:19;;;;;;;2.40;2.20;;;;;;;15.51;66.39;96403.78;5031400;28;20270;-70
2023/10/30 05:24:44;;;;;;;3.33;1.80;;;;;;;15.50;66.25;96391.59;5034092;28;20182;-70
2023/10/30 05:27:10;;;;;;;3.53;2.17;;;;;;;15.43;66.22;96377.59;5031748;28;20768;-70
2023/10/30 05:29:35;;;;;;;3.30;2.20;;;;;;;15.45;65.96;96383.47;5021000;28;20266;-71
2023/10/30 05:32:06;;;;;;;2.33;2.13;;;;;;;15.42;66.02;96381.25;5033208;28;20212;-72
2023/10/30 05:34:31;;;;;;;2.60;2.40;;;;;;;15.39;66.02;96383.47;5025142;28;20184;-71
2023/10/30 05:36:58;;;;;;;3.33;2.33;;;;;;;15.41;65.97;96382.25;5027487;28;20509;-71
2023/10/30 05:39:24;;;;;;;3.27;2.97;;;;;;;15.40;66.13;96380.63;5026285;28;20195;-71
2023/10/30 05:41:49;;;;;;;3.33;2.67;;;;;;;15.42;66.04;96375.16;5030154;28;20418;-69
2023/10/30 05:44:15;;;;;;;3.20;2.70;;;;;;;15.40;65.83;96370.06;5035687;28;20287;-72
2023/10/30 05:46:41;;;;;;;5.20;2.90;;;;;;;15.31;65.65;96379.22;5031605;28;20657;-70
2023/10/30 05:49:06;;;;;;;8.23;6.57;;;;;;;15.26;65.49;96371.91;5031856;28;20519;-70
2023/10/30 05:51:32;;;;;;;11.00;7.07;;;;;;;15.22;65.47;96377.78;5029247;28;20259;-70
2023/10/30 05:53:57;;;;;;;9.93;6.20;;;;;;;15.18;65.32;96386.09;5027756;28;20270;-71
2023/10/30 05:56:23;;;;;;;7.80;6.57;;;;;;;15.18;65.33;96386.09;5026839;28;20193;-69
2023/10/30 05:58:49;;;;;;;6.53;5.70;;;;;;;15.18;65.20;96374.75;5015924;28;20207;-69
2023/10/30 06:01:14;;;;;;;9.30;5.73;;;;;;;15.13;65.21;96370.06;5035034;28;20514;-70
2023/10/30 06:03:40;;;;;;;14.73;4.57;;;;;;;15.11;65.24;96358.91;5029478;28;20270;-69
2023/10/30 06:06:05;;;;;;;6.43;5.50;;;;;;;15.11;65.03;96360.72;5036156;28;20604;-69
2023/10/30 06:08:31;;;;;;;4.30;3.90;;;;;;;15.10;64.84;96367.84;5034823;28;20267;-70
2023/10/30 06:10:58;;;;;;;5.70;4.00;;;;;;;15.12;64.76;96364.97;5042790;28;20187;-70
2023/10/30 06:13:24;;;;;;;4.27;3.87;;;;;;;15.05;64.58;96364.97;5037866;28;20810;-70
2023/10/30 06:15:49;;;;;;;7.53;3.67;;;;;;;15.02;64.72;96365.38;5026297;28;20509;-69
2023/10/30 06:18:15;;;;;;;5.00;3.50;;;;;;;14.99;64.82;96360.53;5032655;28;20218;-70
2023/10/30 06:20:40;;;;;;;7.50;3.70;;;;;;;15.00;64.66;96360.31;5027114;28;20184;-70
2023/10/30 06:23:06;;;;;;;11.00;5.13;;;;;;;14.95;64.95;96357.44;5037503;28;20623;-70
2023/10/30 06:25:31;;;;;;;6.10;4.47;;;;;;;14.97;64.91;96349.34;5038744;28;20189;-70
2023/10/30 06:27:56;;;;;;;5.23;4.60;;;;;;;14.99;64.71;96355.25;5035445;28;20226;-70
2023/10/30 06:30:22;;;;;;;4.80;4.40;;;;;;;14.97;64.70;96349.34;5030601;28;20283;-71
2023/10/30 06:32:47;;;;;;;5.67;4.67;;;;;;;15.03;64.58;96353.81;5026947;28;20301;-70
2023/10/30 06:35:13;;;;;;;6.47;5.73;;;;;;;15.08;64.99;96346.09;5039717;28;20272;-71
2023/10/30 06:37:38;;;;;;;6.50;5.43;;;;;;;15.10;65.25;96344.09;5040734;28;20217;-71
2023/10/30 06:40:04;;;;;;;6.83;5.60;;;;;;;15.16;65.36;96359.09;5031153;28;20575;-70
2023/10/30 06:42:29;;;;;;;8.83;5.87;;;;;;;15.24;65.74;96359.94;5037876;28;20918;-70
2023/10/30 06:44:55;;;;;;;6.30;5.70;;;;;;;15.27;65.97;96370.06;5046337;28;20185;-69
2023/10/30 06:47:20;;;;;;;7.00;6.30;;;;;;;15.32;65.95;96367.63;5036865;28;20238;-70
2023/10/30 06:49:46;;;;;;;9.43;6.60;;;;;;;15.36;65.95;96369.66;5041044;28;20204;-71
2023/10/30 06:52:11;;;;;;;10.00;5.57;;;;;;;15.40;65.86;96362.16;5036481;28;20677;-70
2023/10/30 06:54:37;;;;;;;6.80;6.20;;;;;;;15.51;65.49;96355.44;5046545;28;20236;-70
2023/10/30 06:57:02;;;;;;;6.37;5.70;;;;;;;15.56;65.32;96362.75;5031411;28;20282;-71
2023/10/30 06:59:28;;;;;;;6.57;5.90;;;;;;;15.60;65.30;96359.50;5024117;28;20222;-71
2023/10/30 07:01:53;;;;;;;8.50;6.10;;;;;;;15.61;65.63;96360.31;5035615;28;20183;-70
2023/10/30 07:04:20;;;;;;;7.33;6.40;;;;;;;15.64;65.64;96354.59;5035982;28;20306;-70
2023/10/30 07:06:46;;;;;;;7.07;5.90;;;;;;;15.71;65.54;96368.63;5053479;28;20918;-71
2023/10/30 07:09:15;;;;;;;9.03;6.37;;;;;;;15.76;65.61;96362.72;5057419;28;20458;-69
2023/10/30 07:11:40;;;;;;;7.27;6.50;;;;;;;15.79;65.12;96367.63;5060663;28;20211;-70
2023/10/30 07:14:06;;;;;;;6.80;5.70;;;;;;;15.82;65.21;96362.72;5059680;28;20471;-70
2023/10/30 07:16:32;;;;;;;7.33;6.63;;;;;;;15.88;65.19;96376.97;5054504;28;20645;-70
2023/10/30 07:18:58;;;;;;;7.77;6.77;;;;;;;15.89;64.82;96378.59;5036935;28;20574;-71
2023/10/30 07:21:24;;;;;;;9.87;6.90;;;;;;;15.89;64.86;96377.75;5041756;28;20426;-70
2023/10/30 07:23:50;;;;;;;10.00;6.53;;;;;;;15.96;64.96;96381.22;5030924;28;20450;-71
2023/10/30 07:26:16;;;;;;;8.83;6.70;;;;;;;15.99;64.82;96377.34;5033938;28;20911;-70
2023/10/30 07:28:42;;;;;;;6.50;5.90;;;;;;;16.03;64.81;96373.28;5030305;28;20243;-68
2023/10/30 07:31:08;;;;;;;7.40;6.70;;;;;;;16.09;64.50;96378.56;5041437;28;20945;-70
2023/10/30 07:33:33;;;;;;;8.10;6.80;;;;;;;16.16;64.21;96377.72;5032207;28;20478;-69
2023/10/30 07:36:01;;;;;;;10.23;7.10;;;;;;;16.25;64.15;96377.28;5034044;28;20773;-69
2023/10/30 07:38:29;;;;;;;8.00;6.90;;;;;;;16.30;64.32;96374.00;5034565;28;20207;-70
2023/10/30 07:40:55;;;;;;;17.40;7.17;;;;;;;16.42;64.19;96368.88;5046874;28;20431;-70
2023/10/30 07:43:23;;;;;;;7.67;6.83;;;;;;;16.56;64.21;96367.81;5033555;28;21029;-70
2023/10/30 07:45:50;;;;;;;8.03;7.23;;;;;;;16.73;63.92;96367.31;5027750;28;20187;-69
2023/10/30 07:48:15;;;;;;;7.93;7.13;;;;;;;16.92;63.67;96359.47;5028406;28;20464;-70
2023/10/30 07:50:42;;;;;;;11.10;7.30;;;;;;;17.10;63.40;96356.13;5013505;28;20927;-71
2023/10/30 07:53:08;;;;;;;7.67;6.53;;;;;;;17.26;62.72;96368.84;5038143;28;20203;-69
2023/10/30 07:55:34;;;;;;;10.40;6.80;;;;;;;17.45;62.09;96358.28;5034455;28;20442;-70
2023/10/30 07:58:00;;;;;;;7.90;6.20;;;;;;;17.74;61.50;96361.31;5027926;28;20519;-70
2023/10/30 08:00:25;;;;;;;8.50;6.30;;;;;;;17.94;60.41;96367.22;5029774;28;20454;-70
2023/10/30 08:02:51;;;;;;;5.70;5.20;;;;;;;18.11;58.79;96350.75;5028842;28;20560;-70
2023/10/30 08:05:16;;;;;;;8.57;5.90;;;;;;;18.24;58.37;96342.66;5030041;28;20593;-70
2023/10/30 08:07:44;;;;;;;8.90;6.00;;;;;;;18.41;57.81;96344.69;5029651;28;20661;-71
2023/10/30 08:10:10;;;;;;;5.73;5.20;;;;;;;18.60;57.51;96344.66;5029873;28;20219;-70
2023/10/30 08:12:37;;;;;;;6.27;5.67;;;;;;;18.72;56.96;96335.69;5029092;28;20462;-70
2023/10/30 08:15:03;;;;;;;5.77;5.27;;;;;;;18.97;56.07;96336.63;5024146;28;20485;-70
2023/10/30 08:17:29;;;;;;;6.07;5.03;;;;;;;19.23;55.29;96331.94;5029087;28;20188;-72
2023/10/30 08:19:54;;;;;;;9.50;5.27;;;;;;;19.44;54.67;96323.41;5028743;28;20622;-71
2023/10/30 08:22:19;;;;;;;7.47;4.50;;;;;;;19.71;54.12;96336.25;5030976;28;20188;-70
2023/10/30 08:24:45;;;;;;;8.40;4.40;;;;;;;19.97;53.56;96330.72;5040026;28;20279;-69
2023/10/30 08:27:11;;;;;;;8.00;4.57;;;;;;;20.01;53.01;96327.34;5029510;28;20190;-71
2023/10/30 08:29:36;;;;;;;5.10;4.70;;;;;;;20.13;52.10;96326.53;5029346;28;20350;-70
2023/10/30 08:32:02;;;;;;;5.40;4.50;;;;;;;20.27;51.79;96317.22;5033715;28;20560;-70
2023/10/30 08:34:27;;;;;;;4.87;4.10;;;;;;;20.42;51.76;96314.84;5029725;28;20188;-70
2023/10/30 08:36:53;;;;;;;4.57;4.17;;;;;;;20.69;51.59;96314.28;5045341;28;20189;-69
2023/10/30 08:39:18;;;;;;;4.40;4.03;;;;;;;20.63;50.52;96323.22;5031275;28;20345;-70
2023/10/30 08:41:44;;;;;;;6.40;4.47;;;;;;;20.64;49.97;96319.53;5028128;28;20223;-70
2023/10/30 08:44:09;;;;;;;4.90;4.40;;;;;;;20.78;50.44;96314.75;5038534;28;20188;-71
2023/10/30 08:46:34;;;;;;;7.73;4.00;;;;;;;21.02;49.67;96326.09;5044498;28;20266;-70
2023/10/30 08:49:00;;;;;;;6.37;4.70;;;;;;;21.31;48.55;96315.34;5029312;28;20250;-70
2023/10/30 08:51:25;;;;;;;4.20;3.60;;;;;;;21.53;47.90;96309.28;5028677;28;20233;-72
2023/10/30 08:53:51;;;;;;;4.20;3.80;;;;;;;21.75;47.04;96311.22;5029096;28;20176;-71
2023/10/30 08:56:17;;;;;;;4.23;3.77;;;;;;;21.95;46.74;96308.00;5033109;28;20180;-71
2023/10/30 08:58:43;;;;;;;4.80;3.47;;;;;;;22.13;46.22;96303.41;5034999;28;20329;-71
2023/10/30 09:01:08;;;;;;;3.67;3.37;;;;;;;22.24;45.24;96305.16;5041037;28;20979;-71
2023/10/30 09:03:34;;;;;;;3.50;3.20;;;;;;;22.39;45.84;96301.84;5034793;28;20172;-71
2023/10/30 09:05:59;;;;;;;3.53;3.23;;;;;;;22.18;44.30;96306.94;5031993;28;20183;-70
2023/10/30 09:08:25;;;;;;;4.07;3.73;;;;;;;21.97;45.19;96305.09;5032870;28;20634;-71
2023/10/30 09:10:51;;;;;;;3.97;3.40;;;;;;;22.14;44.93;96295.19;5012524;28;20241;-71
2023/10/30 09:13:17;;;;;;;5.03;3.50;;;;;;;22.13;45.21;96293.56;5027775;28;20213;-71
2023/10/30 09:15:42;;;;;;;4.47;3.20;;;;;;;22.35;45.32;96300.75;5028589;28;20501;-71
2023/10/30 09:18:08;;;;;;;6.10;3.20;;;;;;;22.53;44.02;96295.09;5019630;28;20171;-71
2023/10/30 09:20:33;;;;;;;4.53;3.10;;;;;;;22.57;44.05;96289.25;5028878;28;20233;-70
2023/10/30 09:22:59;;;;;;;5.87;3.10;;;;;;;22.52;44.04;96290.00;5028175;28;20289;-71
2023/10/30 09:25:24;;;;;;;3.40;3.10;;;;;;;22.57;43.77;96298.06;5032535;28;20195;-71
2023/10/30 09:27:50;;;;;;;6.90;3.03;;;;;;;22.68;43.89;96289.09;5028269;28;20555;-70
2023/10/30 09:30:18;;;;;;;3.03;2.73;;;;;;;22.64;43.79;96282.66;5028128;28;20207;-70
2023/10/30 09:32:44;;;;;;;7.00;3.73;;;;;;;22.67;43.77;96266.13;5043454;28;20207;-70
2023/10/30 09:35:10;;;;;;;3.27;2.70;;;;;;;22.53;43.94;96263.06;5028068;28;20513;-71
2023/10/30 09:37:37;;;;;;;9.67;2.87;;;;;;;22.57;44.06;96265.22;5028531;28;20222;-70
2023/10/30 09:40:04;;;;;;;3.57;3.07;;;;;;;22.62;43.91;96268.75;5022451;28;20223;-71
2023/10/30 09:42:31;;;;;;;3.33;3.03;;;;;;;22.55;44.32;96258.28;4981892;28;20410;-70
2023/10/30 09:44:57;;;;;;;3.20;2.83;;;;;;;22.37;44.21;96261.28;5000341;28;20473;-71
2023/10/30 09:47:24;;;;;;;3.23;2.93;;;;;;;22.39;44.98;96256.50;5010823;28;20422;-71
2023/10/30 09:49:50;;;;;;;4.20;2.90;;;;;;;22.37;44.26;96266.59;5002249;28;20203;-70
2023/10/30 09:52:15;;;;;;;2.90;2.70;;;;;;;22.31;44.67;96265.75;5026681;28;20458;-71
2023/10/30 09:54:44;;;;;;;3.40;2.70;;;;;;;22.09;45.00;96260.41;5030528;28;20424;-71
2023/10/30 09:57:09;;;;;;;5.40;3.07;;;;;;;21.99;45.14;96257.63;5026865;28;20176;-70
2023/10/30 09:59:37;;;;;;;4.43;2.67;;;;;;;21.82;45.56;96252.38;5024863;28;20488;-69
2023/10/30 10:02:02;;;;;;;7.60;2.70;;;;;;;21.53;45.93;96258.66;5027803;28;20246;-69
2023/10/30 10:04:28;;;;;;;3.20;2.90;;;;;;;21.56;46.90;96249.34;5025952;28;20426;-71
2023/10/30 10:06:54;;;;;;;3.80;2.60;;;;;;;21.46;46.62;96252.66;5027867;28;20267;-71
2023/10/30 10:09:20;;;;;;;5.23;3.07;;;;;;;21.49;47.05;96249.50;5034201;28;20630;-71
2023/10/30 10:11:46;;;;;;;3.60;2.40;;;;;;;21.70;46.33;96249.81;5027820;28;20640;-71
2023/10/30 10:14:14;;;;;;;3.80;2.90;;;;;;;21.82;45.94;96245.16;5034458;28;20433;-70
2023/10/30 10:16:39;;;;;;;3.17;2.87;;;;;;;21.91;46.14;96246.38;5028173;28;20171;-70
2023/10/30 10:19:22;;;;;;;3.47;2.60;;;;;;;22.12;46.62;96241.25;5027599;28;20445;-71
2023/10/30 10:21:49;;;;;;;2.97;2.67;;;;;;;22.36;46.08;96248.97;5026551;28;20250;-70
2023/10/30 10:24:41;;;;;;;4.37;2.40;;;;;;;22.44;45.73;96229.88;5021730;28;20787;-72
2023/10/30 10:27:07;;;;;;;3.63;2.83;;;;;;;22.33;45.35;96230.78;5034408;28;20782;-71
2023/10/30 10:29:33;;;;;;;2.40;2.20;;;;;;;22.25;45.51;96219.53;5033096;28;20539;-71
2023/10/30 10:31:58;;;;;;;4.10;2.60;;;;;;;22.15;45.84;96221.28;5027620;28;20207;-71
2023/10/30 10:34:24;;;;;;;3.13;2.10;;;;;;;21.89;45.71;96203.13;5027836;28;20465;-70
2023/10/30 10:36:50;;;;;;;2.33;2.07;;;;;;;21.78;46.13;96196.06;5027492;28;20179;-70
2023/10/30 10:39:15;;;;;;;2.23;2.00;;;;;;;21.71;46.48;96190.09;5026690;28;20265;-71
2023/10/30 10:41:42;;;;;;;3.50;2.43;;;;;;;21.54;46.45;96190.13;5027592;28;20267;-70
2023/10/30 10:44:09;;;;;;;4.77;2.17;;;;;;;21.34;47.26;96186.16;5025956;28;20220;-70
2023/10/30 10:46:35;;;;;;;3.00;2.50;;;;;;;21.23;47.81;96182.53;5026561;28;20420;-70
2023/10/30 10:49:01;;;;;;;2.60;2.37;;;;;;;21.10;49.01;96180.22;5034171;28;20533;-69
2023/10/30 10:51:46;;;;;;;8.83;2.10;;;;;;;21.01;48.87;96171.84;5020615;28;20254;-71
2023/10/30 10:54:24;;;;;;;2.33;2.13;;;;;;;20.96;49.54;96174.44;5027620;28;20454;-70
2023/10/30 10:56:52;;;;;;;4.20;2.50;;;;;;;20.86;49.81;96165.25;5037418;28;20504;-71
2023/10/30 10:59:20;;;;;;;2.13;1.93;;;;;;;20.74;49.98;96175.13;5032084;28;20430;-71
2023/10/30 11:01:48;;;;;;;8.80;2.70;;;;;;;20.72;50.20;96170.06;5026120;28;20485;-70
2023/10/30 11:04:14;;;;;;;4.80;2.10;;;;;;;20.69;50.09;96165.22;5038578;28;20429;-70
2023/10/30 11:06:45;;;;;;;2.43;2.23;;;;;;;20.71;50.10;96165.78;5037499;28;20418;-70
2023/10/30 11:09:14;;;;;;;3.67;2.00;;;;;;;20.63;50.15;96158.22;5027251;28;20204;-70
2023/10/30 11:11:51;;;;;;;3.10;2.40;;;;;;;20.62;50.19;96159.25;5029668;28;20418;-69
2023/10/30 11:14:36;;;;;;;4.50;1.77;;;;;;;20.55;50.26;96147.97;5015925;28;20785;-70
2023/10/30 11:17:03;;;;;;;2.20;1.90;;;;;;;20.57;50.24;96156.50;5036012;28;20426;-71
2023/10/30 11:19:29;;;;;;;2.10;1.73;;;;;;;20.53;49.66;96145.53;5035763;28;20468;-70
2023/10/30 11:21:55;;;;;;;2.87;2.10;;;;;;;20.53;50.02;96137.56;5034163;28;20916;-71
2023/10/30 11:24:39;;;;;;;10.13;1.70;;;;;;;20.49;50.12;96140.94;5031880;28;20508;-71
2023/10/30 11:27:26;;;;;;;1.63;1.40;;;;;;;20.44;49.57;96135.53;5032241;28;21021;-70
2023/10/30 11:29:55;;;;;;;2.37;1.63;;;;;;;20.39;49.40;96123.78;5030734;28;20530;-71